sensor_id;sensor_type;location;lat;lon;timestamp;P1;durP1;ratioP1;P2;durP2;ratioP2
20026;SDS011;10174;42.688;23.344;2022-08-19T00:01:35;19.00;;;9.13;;
20026;SDS011;10174;42.688;23.344;2022-08-19T00:04:03;18.08;;;9.20;;
20026;SDS011;10174;42.688;23.344;2022-08-19T00:06:31;15.15;;;9.10;;
20026;SDS011;10174;42.688;23.344;2022-08-19T00:08:57;15.10;;;9.35;;
20026;SDS011;10174;42.688;23.344;2022-08-19T00:11:25;21.33;;;10.50;;
20026;SDS011;10174;42.688;23.344;2022-08-19T00:13:52;15.52;;;10.32;;
20026;SDS011;10174;42.688;23.344;2022-08-19T00:16:18;16.65;;;9.55;;
20026;SDS011;10174;42.688;23.344;2022-08-19T00:18:45;17.67;;;9.55;;
20026;SDS011;10174;42.688;23.344;2022-08-19T00:21:12;23.13;;;10.05;;
20026;SDS011;10174;42.688;23.344;2022-08-19T00:23:38;13.63;;;9.35;;
20026;SDS011;10174;42.688;23.344;2022-08-19T00:26:04;16.77;;;9.90;;
20026;SDS011;10174;42.688;23.344;2022-08-19T00:28:30;21.67;;;10.15;;
20026;SDS011;10174;42.688;23.344;2022-08-19T00:30:56;15.38;;;10.43;;
20026;SDS011;10174;42.688;23.344;2022-08-19T00:33:22;17.35;;;9.93;;
20026;SDS011;10174;42.688;23.344;2022-08-19T00:35:47;19.60;;;9.65;;
20026;SDS011;10174;42.688;23.344;2022-08-19T00:38:13;15.50;;;9.68;;
20026;SDS011;10174;42.688;23.344;2022-08-19T00:40:38;20.08;;;9.60;;
20026;SDS011;10174;42.688;23.344;2022-08-19T00:43:07;18.90;;;9.07;;
20026;SDS011;10174;42.688;23.344;2022-08-19T00:45:34;15.10;;;9.77;;
20026;SDS011;10174;42.688;23.344;2022-08-19T00:48:00;17.92;;;9.80;;
20026;SDS011;10174;42.688;23.344;2022-08-19T00:50:29;19.08;;;9.85;;
20026;SDS011;10174;42.688;23.344;2022-08-19T00:52:55;16.63;;;9.57;;
20026;SDS011;10174;42.688;23.344;2022-08-19T00:55:25;17.95;;;10.02;;
20026;SDS011;10174;42.688;23.344;2022-08-19T00:57:58;18.02;;;9.95;;
20026;SDS011;10174;42.688;23.344;2022-08-19T01:00:27;14.80;;;9.98;;
20026;SDS011;10174;42.688;23.344;2022-08-19T01:02:53;25.85;;;11.25;;
20026;SDS011;10174;42.688;23.344;2022-08-19T01:05:21;18.70;;;10.38;;
20026;SDS011;10174;42.688;23.344;2022-08-19T01:07:52;18.33;;;10.93;;
20026;SDS011;10174;42.688;23.344;2022-08-19T01:10:20;15.88;;;9.77;;
20026;SDS011;10174;42.688;23.344;2022-08-19T01:12:49;17.63;;;10.00;;
20026;SDS011;10174;42.688;23.344;2022-08-19T01:15:17;22.98;;;10.45;;
20026;SDS011;10174;42.688;23.344;2022-08-19T01:17:46;17.23;;;10.20;;
20026;SDS011;10174;42.688;23.344;2022-08-19T01:20:13;18.20;;;10.10;;
20026;SDS011;10174;42.688;23.344;2022-08-19T01:22:43;22.00;;;10.65;;
20026;SDS011;10174;42.688;23.344;2022-08-19T01:25:12;17.65;;;10.15;;
20026;SDS011;10174;42.688;23.344;2022-08-19T01:27:39;17.13;;;10.35;;
20026;SDS011;10174;42.688;23.344;2022-08-19T01:30:08;18.02;;;11.27;;
20026;SDS011;10174;42.688;23.344;2022-08-19T01:32:35;20.15;;;10.90;;
20026;SDS011;10174;42.688;23.344;2022-08-19T01:35:01;19.65;;;10.45;;
20026;SDS011;10174;42.688;23.344;2022-08-19T01:37:28;21.20;;;11.05;;
20026;SDS011;10174;42.688;23.344;2022-08-19T01:39:55;22.20;;;11.93;;
20026;SDS011;10174;42.688;23.344;2022-08-19T01:42:21;15.93;;;10.40;;
20026;SDS011;10174;42.688;23.344;2022-08-19T01:44:47;18.02;;;11.45;;
20026;SDS011;10174;42.688;23.344;2022-08-19T01:47:12;18.35;;;10.95;;
20026;SDS011;10174;42.688;23.344;2022-08-19T01:49:38;22.60;;;11.52;;
20026;SDS011;10174;42.688;23.344;2022-08-19T01:52:04;25.60;;;12.40;;
20026;SDS011;10174;42.688;23.344;2022-08-19T01:54:30;28.33;;;11.60;;
20026;SDS011;10174;42.688;23.344;2022-08-19T01:57:06;20.27;;;11.50;;
20026;SDS011;10174;42.688;23.344;2022-08-19T01:59:36;17.48;;;11.90;;
20026;SDS011;10174;42.688;23.344;2022-08-19T02:02:02;19.38;;;10.93;;
20026;SDS011;10174;42.688;23.344;2022-08-19T02:04:32;18.88;;;10.95;;
20026;SDS011;10174;42.688;23.344;2022-08-19T02:06:57;20.67;;;11.48;;
20026;SDS011;10174;42.688;23.344;2022-08-19T02:09:23;20.15;;;11.52;;
20026;SDS011;10174;42.688;23.344;2022-08-19T02:11:48;20.00;;;11.63;;
20026;SDS011;10174;42.688;23.344;2022-08-19T02:14:14;18.42;;;10.98;;
20026;SDS011;10174;42.688;23.344;2022-08-19T02:16:40;16.88;;;11.70;;
20026;SDS011;10174;42.688;23.344;2022-08-19T02:19:05;22.85;;;12.10;;
20026;SDS011;10174;42.688;23.344;2022-08-19T02:23:56;29.25;;;11.88;;
20026;SDS011;10174;42.688;23.344;2022-08-19T02:26:23;17.02;;;11.07;;
20026;SDS011;10174;42.688;23.344;2022-08-19T02:28:51;20.70;;;11.25;;
20026;SDS011;10174;42.688;23.344;2022-08-19T02:31:19;20.38;;;10.93;;
20026;SDS011;10174;42.688;23.344;2022-08-19T02:33:47;20.27;;;11.80;;
20026;SDS011;10174;42.688;23.344;2022-08-19T02:36:14;22.95;;;12.07;;
20026;SDS011;10174;42.688;23.344;2022-08-19T02:38:41;26.65;;;11.75;;
20026;SDS011;10174;42.688;23.344;2022-08-19T02:41:11;24.02;;;11.65;;
20026;SDS011;10174;42.688;23.344;2022-08-19T02:43:38;20.02;;;11.20;;
20026;SDS011;10174;42.688;23.344;2022-08-19T02:46:15;22.27;;;11.75;;
20026;SDS011;10174;42.688;23.344;2022-08-19T02:48:46;20.00;;;11.80;;
20026;SDS011;10174;42.688;23.344;2022-08-19T02:51:20;16.77;;;11.20;;
20026;SDS011;10174;42.688;23.344;2022-08-19T02:53:56;16.58;;;10.70;;
20026;SDS011;10174;42.688;23.344;2022-08-19T02:56:22;20.60;;;10.85;;
20026;SDS011;10174;42.688;23.344;2022-08-19T02:58:49;24.00;;;11.77;;
20026;SDS011;10174;42.688;23.344;2022-08-19T03:01:25;24.10;;;12.38;;
20026;SDS011;10174;42.688;23.344;2022-08-19T03:03:53;27.10;;;11.35;;
20026;SDS011;10174;42.688;23.344;2022-08-19T03:06:21;19.95;;;11.70;;
20026;SDS011;10174;42.688;23.344;2022-08-19T03:08:47;20.95;;;12.15;;
20026;SDS011;10174;42.688;23.344;2022-08-19T03:13:47;19.23;;;11.82;;
20026;SDS011;10174;42.688;23.344;2022-08-19T03:16:17;19.60;;;11.40;;
20026;SDS011;10174;42.688;23.344;2022-08-19T03:18:43;18.05;;;11.27;;
20026;SDS011;10174;42.688;23.344;2022-08-19T03:21:14;21.15;;;11.43;;
20026;SDS011;10174;42.688;23.344;2022-08-19T03:23:41;22.95;;;11.80;;
20026;SDS011;10174;42.688;23.344;2022-08-19T03:26:06;23.25;;;11.60;;
20026;SDS011;10174;42.688;23.344;2022-08-19T03:28:32;19.38;;;12.25;;
20026;SDS011;10174;42.688;23.344;2022-08-19T03:31:06;22.70;;;12.73;;
20026;SDS011;10174;42.688;23.344;2022-08-19T03:33:34;19.77;;;12.82;;
20026;SDS011;10174;42.688;23.344;2022-08-19T03:36:02;28.10;;;12.52;;
20026;SDS011;10174;42.688;23.344;2022-08-19T03:38:32;20.58;;;12.15;;
20026;SDS011;10174;42.688;23.344;2022-08-19T03:41:02;21.10;;;12.82;;
20026;SDS011;10174;42.688;23.344;2022-08-19T03:43:32;27.02;;;12.73;;
20026;SDS011;10174;42.688;23.344;2022-08-19T03:46:21;20.33;;;12.18;;
20026;SDS011;10174;42.688;23.344;2022-08-19T03:48:48;20.65;;;12.82;;
20026;SDS011;10174;42.688;23.344;2022-08-19T03:51:21;28.63;;;12.77;;
20026;SDS011;10174;42.688;23.344;2022-08-19T03:53:47;24.33;;;12.23;;
20026;SDS011;10174;42.688;23.344;2022-08-19T03:56:13;28.60;;;13.02;;
20026;SDS011;10174;42.688;23.344;2022-08-19T03:58:40;25.98;;;13.40;;
20026;SDS011;10174;42.688;23.344;2022-08-19T04:01:07;22.60;;;13.02;;
20026;SDS011;10174;42.688;23.344;2022-08-19T04:03:35;31.17;;;13.63;;
20026;SDS011;10174;42.688;23.344;2022-08-19T04:08:39;28.95;;;13.20;;
20026;SDS011;10174;42.688;23.344;2022-08-19T04:11:18;26.73;;;12.73;;
20026;SDS011;10174;42.688;23.344;2022-08-19T04:13:49;33.47;;;13.55;;
20026;SDS011;10174;42.688;23.344;2022-08-19T04:16:18;35.33;;;14.38;;
20026;SDS011;10174;42.688;23.344;2022-08-19T04:18:45;30.90;;;13.00;;
20026;SDS011;10174;42.688;23.344;2022-08-19T04:21:16;22.83;;;13.30;;
20026;SDS011;10174;42.688;23.344;2022-08-19T04:23:43;23.75;;;13.10;;
20026;SDS011;10174;42.688;23.344;2022-08-19T04:26:13;27.42;;;13.63;;
20026;SDS011;10174;42.688;23.344;2022-08-19T04:28:39;26.63;;;13.88;;
20026;SDS011;10174;42.688;23.344;2022-08-19T04:31:04;28.25;;;13.35;;
20026;SDS011;10174;42.688;23.344;2022-08-19T04:33:30;22.55;;;13.93;;
20026;SDS011;10174;42.688;23.344;2022-08-19T04:35:55;32.75;;;14.02;;
20026;SDS011;10174;42.688;23.344;2022-08-19T04:38:23;33.67;;;15.40;;
20026;SDS011;10174;42.688;23.344;2022-08-19T04:40:49;34.78;;;15.10;;
20026;SDS011;10174;42.688;23.344;2022-08-19T04:43:35;25.35;;;13.90;;
20026;SDS011;10174;42.688;23.344;2022-08-19T04:46:11;25.35;;;13.85;;
20026;SDS011;10174;42.688;23.344;2022-08-19T04:48:37;22.17;;;13.48;;
20026;SDS011;10174;42.688;23.344;2022-08-19T04:51:09;23.65;;;13.40;;
20026;SDS011;10174;42.688;23.344;2022-08-19T04:53:36;31.02;;;15.70;;
20026;SDS011;10174;42.688;23.344;2022-08-19T04:56:04;36.92;;;16.13;;
20026;SDS011;10174;42.688;23.344;2022-08-19T04:58:33;24.55;;;14.57;;
20026;SDS011;10174;42.688;23.344;2022-08-19T05:00:59;28.73;;;14.82;;
20026;SDS011;10174;42.688;23.344;2022-08-19T05:03:24;23.25;;;15.70;;
20026;SDS011;10174;42.688;23.344;2022-08-19T05:05:50;22.02;;;14.10;;
20026;SDS011;10174;42.688;23.344;2022-08-19T05:08:18;23.80;;;14.02;;
20026;SDS011;10174;42.688;23.344;2022-08-19T05:10:46;26.58;;;16.88;;
20026;SDS011;10174;42.688;23.344;2022-08-19T05:13:13;27.48;;;15.65;;
20026;SDS011;10174;42.688;23.344;2022-08-19T05:15:39;30.20;;;15.40;;
20026;SDS011;10174;42.688;23.344;2022-08-19T05:18:05;29.15;;;14.93;;
20026;SDS011;10174;42.688;23.344;2022-08-19T05:20:49;21.95;;;14.50;;
20026;SDS011;10174;42.688;23.344;2022-08-19T05:23:33;25.73;;;14.73;;
20026;SDS011;10174;42.688;23.344;2022-08-19T05:25:58;24.98;;;14.35;;
20026;SDS011;10174;42.688;23.344;2022-08-19T05:28:24;26.33;;;14.65;;
20026;SDS011;10174;42.688;23.344;2022-08-19T05:30:49;33.10;;;15.60;;
20026;SDS011;10174;42.688;23.344;2022-08-19T05:33:16;20.73;;;14.27;;
20026;SDS011;10174;42.688;23.344;2022-08-19T05:35:42;25.67;;;16.25;;
20026;SDS011;10174;42.688;23.344;2022-08-19T05:38:09;26.05;;;14.05;;
20026;SDS011;10174;42.688;23.344;2022-08-19T05:40:36;23.25;;;13.98;;
20026;SDS011;10174;42.688;23.344;2022-08-19T05:43:06;23.88;;;14.85;;
20026;SDS011;10174;42.688;23.344;2022-08-19T05:45:37;28.90;;;13.98;;
20026;SDS011;10174;42.688;23.344;2022-08-19T05:48:04;26.90;;;15.52;;
20026;SDS011;10174;42.688;23.344;2022-08-19T05:50:29;27.15;;;13.85;;
20026;SDS011;10174;42.688;23.344;2022-08-19T05:52:55;23.83;;;15.10;;
20026;SDS011;10174;42.688;23.344;2022-08-19T05:55:20;26.73;;;14.65;;
20026;SDS011;10174;42.688;23.344;2022-08-19T05:57:47;22.35;;;14.50;;
20026;SDS011;10174;42.688;23.344;2022-08-19T06:00:13;21.02;;;13.27;;
20026;SDS011;10174;42.688;23.344;2022-08-19T06:02:39;22.23;;;13.20;;
20026;SDS011;10174;42.688;23.344;2022-08-19T06:05:06;22.50;;;13.75;;
20026;SDS011;10174;42.688;23.344;2022-08-19T06:07:34;33.35;;;16.55;;
20026;SDS011;10174;42.688;23.344;2022-08-19T06:10:03;25.25;;;14.32;;
20026;SDS011;10174;42.688;23.344;2022-08-19T06:12:30;31.50;;;16.85;;
20026;SDS011;10174;42.688;23.344;2022-08-19T06:14:59;29.67;;;15.00;;
20026;SDS011;10174;42.688;23.344;2022-08-19T06:17:27;26.42;;;13.23;;
20026;SDS011;10174;42.688;23.344;2022-08-19T06:19:55;26.42;;;13.73;;
20026;SDS011;10174;42.688;23.344;2022-08-19T06:22:21;26.05;;;13.40;;
20026;SDS011;10174;42.688;23.344;2022-08-19T06:24:46;24.35;;;13.43;;
20026;SDS011;10174;42.688;23.344;2022-08-19T06:27:12;28.02;;;12.90;;
20026;SDS011;10174;42.688;23.344;2022-08-19T06:29:38;23.25;;;12.90;;
20026;SDS011;10174;42.688;23.344;2022-08-19T06:32:03;22.33;;;13.10;;
20026;SDS011;10174;42.688;23.344;2022-08-19T06:34:30;45.45;;;12.68;;
20026;SDS011;10174;42.688;23.344;2022-08-19T06:36:57;28.40;;;13.27;;
20026;SDS011;10174;42.688;23.344;2022-08-19T06:39:26;22.05;;;13.57;;
20026;SDS011;10174;42.688;23.344;2022-08-19T06:42:01;21.38;;;12.05;;
20026;SDS011;10174;42.688;23.344;2022-08-19T06:44:29;21.40;;;11.75;;
20026;SDS011;10174;42.688;23.344;2022-08-19T06:46:59;18.42;;;11.50;;
20026;SDS011;10174;42.688;23.344;2022-08-19T06:49:27;22.65;;;11.73;;
20026;SDS011;10174;42.688;23.344;2022-08-19T06:51:56;17.90;;;11.20;;
20026;SDS011;10174;42.688;23.344;2022-08-19T06:54:22;19.27;;;10.40;;
20026;SDS011;10174;42.688;23.344;2022-08-19T06:56:48;17.80;;;10.77;;
20026;SDS011;10174;42.688;23.344;2022-08-19T06:59:21;26.73;;;11.15;;
20026;SDS011;10174;42.688;23.344;2022-08-19T07:01:51;31.88;;;10.52;;
20026;SDS011;10174;42.688;23.344;2022-08-19T07:04:20;26.83;;;10.63;;
20026;SDS011;10174;42.688;23.344;2022-08-19T07:06:47;22.88;;;10.30;;
20026;SDS011;10174;42.688;23.344;2022-08-19T07:09:14;23.23;;;11.13;;
20026;SDS011;10174;42.688;23.344;2022-08-19T07:11:49;25.58;;;11.13;;
20026;SDS011;10174;42.688;23.344;2022-08-19T07:14:16;19.48;;;12.90;;
20026;SDS011;10174;42.688;23.344;2022-08-19T07:16:43;17.95;;;12.25;;
20026;SDS011;10174;42.688;23.344;2022-08-19T07:19:10;17.90;;;10.27;;
20026;SDS011;10174;42.688;23.344;2022-08-19T07:21:36;14.13;;;9.18;;
20026;SDS011;10174;42.688;23.344;2022-08-19T07:24:02;25.10;;;9.65;;
20026;SDS011;10174;42.688;23.344;2022-08-19T07:26:29;18.00;;;9.98;;
20026;SDS011;10174;42.688;23.344;2022-08-19T07:28:57;16.88;;;11.40;;
20026;SDS011;10174;42.688;23.344;2022-08-19T07:31:24;11.25;;;8.77;;
20026;SDS011;10174;42.688;23.344;2022-08-19T07:33:52;25.88;;;9.98;;
20026;SDS011;10174;42.688;23.344;2022-08-19T07:36:21;21.85;;;9.70;;
20026;SDS011;10174;42.688;23.344;2022-08-19T07:38:57;18.95;;;9.23;;
20026;SDS011;10174;42.688;23.344;2022-08-19T07:41:24;19.35;;;11.05;;
20026;SDS011;10174;42.688;23.344;2022-08-19T07:43:51;19.70;;;8.95;;
20026;SDS011;10174;42.688;23.344;2022-08-19T07:46:18;14.05;;;9.05;;
20026;SDS011;10174;42.688;23.344;2022-08-19T07:48:45;18.92;;;9.68;;
20026;SDS011;10174;42.688;23.344;2022-08-19T07:51:12;17.90;;;9.90;;
20026;SDS011;10174;42.688;23.344;2022-08-19T07:53:39;18.35;;;9.75;;
20026;SDS011;10174;42.688;23.344;2022-08-19T07:56:04;22.40;;;9.35;;
20026;SDS011;10174;42.688;23.344;2022-08-19T07:58:32;21.02;;;10.40;;
20026;SDS011;10174;42.688;23.344;2022-08-19T08:00:59;20.52;;;8.68;;
20026;SDS011;10174;42.688;23.344;2022-08-19T08:03:25;19.40;;;8.07;;
20026;SDS011;10174;42.688;23.344;2022-08-19T08:06:14;21.38;;;7.90;;
20026;SDS011;10174;42.688;23.344;2022-08-19T08:08:59;33.95;;;25.58;;
20026;SDS011;10174;42.688;23.344;2022-08-19T08:14:18;16.33;;;8.65;;
20026;SDS011;10174;42.688;23.344;2022-08-19T08:16:47;10.77;;;7.57;;
20026;SDS011;10174;42.688;23.344;2022-08-19T08:19:15;13.88;;;8.38;;
20026;SDS011;10174;42.688;23.344;2022-08-19T08:21:42;19.33;;;8.30;;
20026;SDS011;10174;42.688;23.344;2022-08-19T08:24:08;16.85;;;7.95;;
20026;SDS011;10174;42.688;23.344;2022-08-19T08:26:33;19.50;;;7.13;;
20026;SDS011;10174;42.688;23.344;2022-08-19T08:28:59;16.40;;;7.50;;
20026;SDS011;10174;42.688;23.344;2022-08-19T08:31:24;13.57;;;7.18;;
20026;SDS011;10174;42.688;23.344;2022-08-19T08:33:50;16.00;;;7.05;;
20026;SDS011;10174;42.688;23.344;2022-08-19T08:36:15;21.15;;;7.20;;
20026;SDS011;10174;42.688;23.344;2022-08-19T08:38:41;11.65;;;6.30;;
20026;SDS011;10174;42.688;23.344;2022-08-19T08:41:16;14.63;;;7.50;;
20026;SDS011;10174;42.688;23.344;2022-08-19T08:43:48;13.40;;;6.63;;
20026;SDS011;10174;42.688;23.344;2022-08-19T08:51:23;15.18;;;7.45;;
20026;SDS011;10174;42.688;23.344;2022-08-19T08:53:52;14.93;;;7.43;;
20026;SDS011;10174;42.688;23.344;2022-08-19T08:56:20;16.77;;;6.72;;
20026;SDS011;10174;42.688;23.344;2022-08-19T08:58:58;15.27;;;6.45;;
20026;SDS011;10174;42.688;23.344;2022-08-19T09:01:26;16.38;;;6.75;;
20026;SDS011;10174;42.688;23.344;2022-08-19T09:03:53;14.25;;;5.85;;
20026;SDS011;10174;42.688;23.344;2022-08-19T09:08:57;12.23;;;6.72;;
20026;SDS011;10174;42.688;23.344;2022-08-19T09:14:47;21.55;;;13.18;;
20026;SDS011;10174;42.688;23.344;2022-08-19T09:17:18;15.13;;;7.28;;
20026;SDS011;10174;42.688;23.344;2022-08-19T09:19:59;14.00;;;8.82;;
20026;SDS011;10174;42.688;23.344;2022-08-19T09:22:33;14.07;;;6.00;;
20026;SDS011;10174;42.688;23.344;2022-08-19T09:24:59;9.15;;;5.40;;
20026;SDS011;10174;42.688;23.344;2022-08-19T09:27:28;10.38;;;4.55;;
20026;SDS011;10174;42.688;23.344;2022-08-19T09:29:54;9.20;;;4.88;;
20026;SDS011;10174;42.688;23.344;2022-08-19T09:32:20;6.97;;;3.60;;
20026;SDS011;10174;42.688;23.344;2022-08-19T09:34:47;10.23;;;3.90;;
20026;SDS011;10174;42.688;23.344;2022-08-19T09:37:12;5.95;;;4.18;;
20026;SDS011;10174;42.688;23.344;2022-08-19T09:39:38;7.85;;;4.53;;
20026;SDS011;10174;42.688;23.344;2022-08-19T09:42:05;15.00;;;5.38;;
20026;SDS011;10174;42.688;23.344;2022-08-19T09:44:36;12.13;;;4.38;;
20026;SDS011;10174;42.688;23.344;2022-08-19T09:47:02;9.32;;;3.63;;
20026;SDS011;10174;42.688;23.344;2022-08-19T09:49:28;9.52;;;4.32;;
20026;SDS011;10174;42.688;23.344;2022-08-19T09:51:54;9.95;;;4.28;;
20026;SDS011;10174;42.688;23.344;2022-08-19T09:54:21;13.98;;;3.97;;
20026;SDS011;10174;42.688;23.344;2022-08-19T09:56:47;9.27;;;4.00;;
20026;SDS011;10174;42.688;23.344;2022-08-19T09:59:13;9.40;;;4.97;;
20026;SDS011;10174;42.688;23.344;2022-08-19T10:01:39;3.83;;;3.42;;
20026;SDS011;10174;42.688;23.344;2022-08-19T10:04:05;9.10;;;5.40;;
20026;SDS011;10174;42.688;23.344;2022-08-19T10:06:34;9.00;;;5.85;;
20026;SDS011;10174;42.688;23.344;2022-08-19T10:09:02;8.20;;;3.80;;
20026;SDS011;10174;42.688;23.344;2022-08-19T10:11:31;7.10;;;3.85;;
20026;SDS011;10174;42.688;23.344;2022-08-19T10:13:57;7.40;;;4.40;;
20026;SDS011;10174;42.688;23.344;2022-08-19T10:16:23;14.82;;;4.65;;
20026;SDS011;10174;42.688;23.344;2022-08-19T10:18:49;9.43;;;5.03;;
20026;SDS011;10174;42.688;23.344;2022-08-19T10:21:19;8.68;;;4.55;;
20026;SDS011;10174;42.688;23.344;2022-08-19T10:23:55;6.03;;;3.83;;
20026;SDS011;10174;42.688;23.344;2022-08-19T10:26:24;12.88;;;4.68;;
20026;SDS011;10174;42.688;23.344;2022-08-19T10:28:51;7.90;;;4.22;;
20026;SDS011;10174;42.688;23.344;2022-08-19T10:31:18;7.40;;;4.15;;
20026;SDS011;10174;42.688;23.344;2022-08-19T10:33:49;9.75;;;5.05;;
20026;SDS011;10174;42.688;23.344;2022-08-19T10:36:20;7.68;;;4.28;;
20026;SDS011;10174;42.688;23.344;2022-08-19T10:38:49;7.82;;;4.20;;
20026;SDS011;10174;42.688;23.344;2022-08-19T10:41:17;9.98;;;4.38;;
20026;SDS011;10174;42.688;23.344;2022-08-19T10:43:47;9.20;;;5.07;;
20026;SDS011;10174;42.688;23.344;2022-08-19T10:46:15;7.55;;;4.47;;
20026;SDS011;10174;42.688;23.344;2022-08-19T10:48:41;7.00;;;3.97;;
20026;SDS011;10174;42.688;23.344;2022-08-19T10:51:08;12.00;;;4.90;;
20026;SDS011;10174;42.688;23.344;2022-08-19T10:53:52;7.30;;;4.85;;
20026;SDS011;10174;42.688;23.344;2022-08-19T10:56:18;9.13;;;4.40;;
20026;SDS011;10174;42.688;23.344;2022-08-19T10:59:03;8.70;;;4.20;;
20026;SDS011;10174;42.688;23.344;2022-08-19T11:01:29;8.98;;;4.55;;
20026;SDS011;10174;42.688;23.344;2022-08-19T11:03:57;15.95;;;8.38;;
20026;SDS011;10174;42.688;23.344;2022-08-19T11:06:22;9.45;;;4.70;;
20026;SDS011;10174;42.688;23.344;2022-08-19T11:08:50;8.00;;;4.93;;
20026;SDS011;10174;42.688;23.344;2022-08-19T11:11:16;7.05;;;4.35;;
20026;SDS011;10174;42.688;23.344;2022-08-19T11:13:42;8.13;;;4.38;;
20026;SDS011;10174;42.688;23.344;2022-08-19T11:16:15;8.52;;;4.90;;
20026;SDS011;10174;42.688;23.344;2022-08-19T11:18:44;6.65;;;4.70;;
20026;SDS011;10174;42.688;23.344;2022-08-19T11:21:13;7.53;;;4.63;;
20026;SDS011;10174;42.688;23.344;2022-08-19T11:23:44;8.32;;;4.30;;
20026;SDS011;10174;42.688;23.344;2022-08-19T11:26:11;11.45;;;5.00;;
20026;SDS011;10174;42.688;23.344;2022-08-19T11:28:37;6.32;;;4.53;;
20026;SDS011;10174;42.688;23.344;2022-08-19T11:31:03;8.50;;;4.82;;
20026;SDS011;10174;42.688;23.344;2022-08-19T11:33:30;7.72;;;4.50;;
20026;SDS011;10174;42.688;23.344;2022-08-19T11:35:57;9.43;;;4.70;;
20026;SDS011;10174;42.688;23.344;2022-08-19T11:38:24;11.25;;;5.25;;
20026;SDS011;10174;42.688;23.344;2022-08-19T11:40:58;7.90;;;4.88;;
20026;SDS011;10174;42.688;23.344;2022-08-19T11:43:25;8.98;;;4.93;;
20026;SDS011;10174;42.688;23.344;2022-08-19T11:45:52;10.52;;;4.93;;
20026;SDS011;10174;42.688;23.344;2022-08-19T11:48:18;7.00;;;4.90;;
20026;SDS011;10174;42.688;23.344;2022-08-19T11:50:47;7.53;;;5.32;;
20026;SDS011;10174;42.688;23.344;2022-08-19T11:53:16;7.95;;;4.50;;
20026;SDS011;10174;42.688;23.344;2022-08-19T11:55:45;12.52;;;4.78;;
20026;SDS011;10174;42.688;23.344;2022-08-19T11:58:12;8.98;;;6.10;;
20026;SDS011;10174;42.688;23.344;2022-08-19T12:00:39;6.95;;;4.75;;
20026;SDS011;10174;42.688;23.344;2022-08-19T12:03:05;13.35;;;5.97;;
20026;SDS011;10174;42.688;23.344;2022-08-19T12:05:32;9.45;;;5.20;;
20026;SDS011;10174;42.688;23.344;2022-08-19T12:07:58;9.50;;;5.47;;
20026;SDS011;10174;42.688;23.344;2022-08-19T12:10:23;6.53;;;5.13;;
20026;SDS011;10174;42.688;23.344;2022-08-19T12:12:49;7.55;;;5.43;;
20026;SDS011;10174;42.688;23.344;2022-08-19T12:15:14;8.30;;;5.35;;
20026;SDS011;10174;42.688;23.344;2022-08-19T12:17:40;11.77;;;5.07;;
20026;SDS011;10174;42.688;23.344;2022-08-19T12:20:08;10.57;;;5.90;;
20026;SDS011;10174;42.688;23.344;2022-08-19T12:22:35;15.45;;;7.55;;
20026;SDS011;10174;42.688;23.344;2022-08-19T12:25:02;13.38;;;5.72;;
20026;SDS011;10174;42.688;23.344;2022-08-19T12:27:28;9.93;;;5.00;;
20026;SDS011;10174;42.688;23.344;2022-08-19T12:29:54;9.88;;;5.30;;
20026;SDS011;10174;42.688;23.344;2022-08-19T12:32:19;20.50;;;6.82;;
20026;SDS011;10174;42.688;23.344;2022-08-19T12:34:46;9.57;;;6.40;;
20026;SDS011;10174;42.688;23.344;2022-08-19T12:37:12;10.65;;;5.55;;
20026;SDS011;10174;42.688;23.344;2022-08-19T12:39:39;10.27;;;6.13;;
20026;SDS011;10174;42.688;23.344;2022-08-19T12:42:09;14.27;;;7.20;;
20026;SDS011;10174;42.688;23.344;2022-08-19T12:44:37;17.48;;;5.88;;
20026;SDS011;10174;42.688;23.344;2022-08-19T12:47:04;10.50;;;6.03;;
20026;SDS011;10174;42.688;23.344;2022-08-19T12:49:31;13.43;;;6.68;;
20026;SDS011;10174;42.688;23.344;2022-08-19T12:51:59;16.13;;;8.50;;
20026;SDS011;10174;42.688;23.344;2022-08-19T12:54:25;10.27;;;5.97;;
20026;SDS011;10174;42.688;23.344;2022-08-19T12:56:52;9.27;;;5.28;;
20026;SDS011;10174;42.688;23.344;2022-08-19T12:59:17;8.15;;;4.85;;
20026;SDS011;10174;42.688;23.344;2022-08-19T13:01:44;12.52;;;6.05;;
20026;SDS011;10174;42.688;23.344;2022-08-19T13:04:10;8.25;;;5.05;;
20026;SDS011;10174;42.688;23.344;2022-08-19T13:06:35;14.65;;;7.93;;
20026;SDS011;10174;42.688;23.344;2022-08-19T13:09:02;11.32;;;5.63;;
20026;SDS011;10174;42.688;23.344;2022-08-19T13:11:28;13.73;;;5.57;;
20026;SDS011;10174;42.688;23.344;2022-08-19T13:13:57;8.70;;;5.93;;
20026;SDS011;10174;42.688;23.344;2022-08-19T13:16:23;17.05;;;6.70;;
20026;SDS011;10174;42.688;23.344;2022-08-19T13:18:49;11.25;;;5.38;;
20026;SDS011;10174;42.688;23.344;2022-08-19T13:21:18;10.25;;;5.25;;
20026;SDS011;10174;42.688;23.344;2022-08-19T13:23:46;9.00;;;5.35;;
20026;SDS011;10174;42.688;23.344;2022-08-19T13:26:12;11.73;;;6.82;;
20026;SDS011;10174;42.688;23.344;2022-08-19T13:28:38;18.38;;;6.50;;
20026;SDS011;10174;42.688;23.344;2022-08-19T13:31:23;11.00;;;5.13;;
20026;SDS011;10174;42.688;23.344;2022-08-19T13:34:08;15.32;;;7.07;;
20026;SDS011;10174;42.688;23.344;2022-08-19T13:36:34;10.73;;;5.22;;
20026;SDS011;10174;42.688;23.344;2022-08-19T13:39:01;11.05;;;6.18;;
20026;SDS011;10174;42.688;23.344;2022-08-19T13:41:28;15.52;;;6.32;;
20026;SDS011;10174;42.688;23.344;2022-08-19T13:43:53;8.70;;;5.40;;
20026;SDS011;10174;42.688;23.344;2022-08-19T13:46:19;12.43;;;8.10;;
20026;SDS011;10174;42.688;23.344;2022-08-19T13:48:45;11.63;;;5.30;;
20026;SDS011;10174;42.688;23.344;2022-08-19T13:51:13;8.93;;;5.15;;
20026;SDS011;10174;42.688;23.344;2022-08-19T13:53:41;9.07;;;5.28;;
20026;SDS011;10174;42.688;23.344;2022-08-19T13:56:08;12.05;;;5.63;;
20026;SDS011;10174;42.688;23.344;2022-08-19T13:58:38;15.65;;;7.25;;
20026;SDS011;10174;42.688;23.344;2022-08-19T14:01:03;14.98;;;5.45;;
20026;SDS011;10174;42.688;23.344;2022-08-19T14:03:30;17.73;;;8.30;;
20026;SDS011;10174;42.688;23.344;2022-08-19T14:05:57;16.05;;;5.93;;
20026;SDS011;10174;42.688;23.344;2022-08-19T14:08:23;13.52;;;5.72;;
20026;SDS011;10174;42.688;23.344;2022-08-19T14:10:48;9.88;;;5.63;;
20026;SDS011;10174;42.688;23.344;2022-08-19T14:13:16;9.57;;;5.60;;
20026;SDS011;10174;42.688;23.344;2022-08-19T14:15:44;8.70;;;5.20;;
20026;SDS011;10174;42.688;23.344;2022-08-19T14:18:11;9.63;;;5.90;;
20026;SDS011;10174;42.688;23.344;2022-08-19T14:20:36;9.38;;;5.78;;
20026;SDS011;10174;42.688;23.344;2022-08-19T14:23:02;13.73;;;6.20;;
20026;SDS011;10174;42.688;23.344;2022-08-19T14:25:29;13.07;;;5.82;;
20026;SDS011;10174;42.688;23.344;2022-08-19T14:27:55;11.88;;;5.53;;
20026;SDS011;10174;42.688;23.344;2022-08-19T14:30:23;13.23;;;6.65;;
20026;SDS011;10174;42.688;23.344;2022-08-19T14:32:54;11.70;;;6.32;;
20026;SDS011;10174;42.688;23.344;2022-08-19T14:35:20;13.88;;;5.43;;
20026;SDS011;10174;42.688;23.344;2022-08-19T14:37:47;13.13;;;9.50;;
20026;SDS011;10174;42.688;23.344;2022-08-19T14:40:17;13.40;;;6.57;;
20026;SDS011;10174;42.688;23.344;2022-08-19T14:42:50;10.57;;;6.10;;
20026;SDS011;10174;42.688;23.344;2022-08-19T14:45:29;9.23;;;5.28;;